sensor_id;sensor_type;location;lat;lon;timestamp;pressure;altitude;pressure_sealevel;temperature;humidity
72061;BME280;59925;52.136;5.420;2022-07-29T00:02:12;101962.16;;;16.40;60.23
72061;BME280;59925;52.136;5.420;2022-07-29T00:04:39;101964.84;;;16.40;60.67
72061;BME280;59925;52.136;5.420;2022-07-29T00:07:05;101955.97;;;16.34;60.16
72061;BME280;59925;52.136;5.420;2022-07-29T00:09:32;101950.56;;;16.34;60.73
72061;BME280;59925;52.136;5.420;2022-07-29T00:12:10;101954.66;;;16.27;60.80
72061;BME280;59925;52.136;5.420;2022-07-29T00:14:36;101953.34;;;16.19;61.13
72061;BME280;59925;52.136;5.420;2022-07-29T00:17:03;101955.53;;;16.17;61.22
72061;BME280;59925;52.136;5.420;2022-07-29T00:19:29;101952.56;;;16.18;60.87
72061;BME280;59925;52.136;5.420;2022-07-29T00:21:58;101948.00;;;16.14;61.10
72061;BME280;59925;52.136;5.420;2022-07-29T00:24:24;101943.69;;;16.13;61.37
72061;BME280;59925;52.136;5.420;2022-07-29T00:26:51;101946.66;;;16.11;61.75
72061;BME280;59925;52.136;5.420;2022-07-29T00:29:17;101939.38;;;16.06;61.55
72061;BME280;59925;52.136;5.420;2022-07-29T00:31:59;101938.84;;;16.04;61.77
72061;BME280;59925;52.136;5.420;2022-07-29T00:34:26;101935.09;;;16.00;61.95
72061;BME280;59925;52.136;5.420;2022-07-29T00:37:11;101922.38;;;15.96;62.46
72061;BME280;59925;52.136;5.420;2022-07-29T00:39:37;101923.22;;;15.96;61.98
72061;BME280;59925;52.136;5.420;2022-07-29T00:42:04;101924.06;;;15.91;62.43
72061;BME280;59925;52.136;5.420;2022-07-29T00:44:36;101917.28;;;15.89;62.53
72061;BME280;59925;52.136;5.420;2022-07-29T00:47:02;101918.41;;;15.88;62.76
72061;BME280;59925;52.136;5.420;2022-07-29T00:49:29;101920.56;;;15.86;62.16
72061;BME280;59925;52.136;5.420;2022-07-29T00:51:56;101916.78;;;15.87;62.35
72061;BME280;59925;52.136;5.420;2022-07-29T00:54:23;101912.47;;;15.86;62.39
72061;BME280;59925;52.136;5.420;2022-07-29T00:56:49;101919.19;;;15.83;62.41
72061;BME280;59925;52.136;5.420;2022-07-29T00:59:16;101914.63;;;15.78;62.68
72061;BME280;59925;52.136;5.420;2022-07-29T01:01:42;101920.56;;;15.75;63.00
72061;BME280;59925;52.136;5.420;2022-07-29T01:04:08;101912.47;;;15.75;62.76
72061;BME280;59925;52.136;5.420;2022-07-29T01:06:35;101907.06;;;15.75;62.83
72061;BME280;59925;52.136;5.420;2022-07-29T01:09:02;101907.63;;;15.72;62.96
72061;BME280;59925;52.136;5.420;2022-07-29T01:11:29;101905.19;;;15.71;62.95
72061;BME280;59925;52.136;5.420;2022-07-29T01:13:56;101904.38;;;15.70;62.97
72061;BME280;59925;52.136;5.420;2022-07-29T01:16:45;101898.47;;;15.63;63.34
72061;BME280;59925;52.136;5.420;2022-07-29T01:22:25;101897.41;;;15.59;63.25
72061;BME280;59925;52.136;5.420;2022-07-29T01:28:08;101892.56;;;15.51;63.51
72061;BME280;59925;52.136;5.420;2022-07-29T01:30:41;101896.34;;;15.50;63.40
72061;BME280;59925;52.136;5.420;2022-07-29T01:33:13;101903.13;;;15.47;63.81
72061;BME280;59925;52.136;5.420;2022-07-29T01:36:07;101889.91;;;15.40;63.59
72061;BME280;59925;52.136;5.420;2022-07-29T01:38:38;101896.41;;;15.39;63.64
72061;BME280;59925;52.136;5.420;2022-07-29T01:43:52;101893.75;;;15.34;64.07
72061;BME280;59925;52.136;5.420;2022-07-29T01:46:25;101898.59;;;15.32;63.74
72061;BME280;59925;52.136;5.420;2022-07-29T01:48:57;101905.88;;;15.31;64.07
72061;BME280;59925;52.136;5.420;2022-07-29T01:51:38;101897.78;;;15.31;64.02
72061;BME280;59925;52.136;5.420;2022-07-29T01:54:12;101895.38;;;15.30;63.90
72061;BME280;59925;52.136;5.420;2022-07-29T01:56:42;101901.31;;;15.27;64.07
72061;BME280;59925;52.136;5.420;2022-07-29T01:59:10;101897.53;;;15.28;63.64
72061;BME280;59925;52.136;5.420;2022-07-29T02:01:39;101894.28;;;15.26;63.75
72061;BME280;59925;52.136;5.420;2022-07-29T02:04:09;101900.78;;;15.25;63.93
72061;BME280;59925;52.136;5.420;2022-07-29T02:06:58;101892.41;;;15.21;64.39
72061;BME280;59925;52.136;5.420;2022-07-29T02:09:25;101892.13;;;15.23;64.05
72061;BME280;59925;52.136;5.420;2022-07-29T02:11:53;101896.47;;;15.24;64.29
72061;BME280;59925;52.136;5.420;2022-07-29T02:14:22;101894.28;;;15.26;64.08
72061;BME280;59925;52.136;5.420;2022-07-29T02:16:52;101898.06;;;15.30;64.24
72061;BME280;59925;52.136;5.420;2022-07-29T02:19:22;101897.53;;;15.28;64.42
72061;BME280;59925;52.136;5.420;2022-07-29T02:21:51;101891.34;;;15.27;64.08
72061;BME280;59925;52.136;5.420;2022-07-29T02:24:18;101898.31;;;15.28;64.03
72061;BME280;59925;52.136;5.420;2022-07-29T02:26:47;101894.03;;;15.27;64.00
72061;BME280;59925;52.136;5.420;2022-07-29T02:29:14;101890.50;;;15.27;64.28
72061;BME280;59925;52.136;5.420;2022-07-29T02:31:42;101886.72;;;15.28;64.41
72061;BME280;59925;52.136;5.420;2022-07-29T02:34:11;101890.25;;;15.23;64.47
72061;BME280;59925;52.136;5.420;2022-07-29T02:36:39;101882.94;;;15.24;64.46
72061;BME280;59925;52.136;5.420;2022-07-29T02:39:08;101886.22;;;15.21;64.79
72061;BME280;59925;52.136;5.420;2022-07-29T02:41:44;101876.50;;;15.20;64.81
72061;BME280;59925;52.136;5.420;2022-07-29T02:44:16;101883.00;;;15.19;64.77
72061;BME280;59925;52.136;5.420;2022-07-29T02:49:38;101879.47;;;15.18;64.59
72061;BME280;59925;52.136;5.420;2022-07-29T02:52:18;101880.00;;;15.20;64.75
72061;BME280;59925;52.136;5.420;2022-07-29T02:57:21;101878.91;;;15.16;65.09
72061;BME280;59925;52.136;5.420;2022-07-29T02:59:51;101882.44;;;15.16;64.58
72061;BME280;59925;52.136;5.420;2022-07-29T03:02:20;101883.53;;;15.15;64.86
72061;BME280;59925;52.136;5.420;2022-07-29T03:04:47;101872.72;;;15.15;64.57
72061;BME280;59925;52.136;5.420;2022-07-29T03:07:18;101887.56;;;15.18;65.06
72061;BME280;59925;52.136;5.420;2022-07-29T03:09:45;101877.59;;;15.19;64.89
72061;BME280;59925;52.136;5.420;2022-07-29T03:12:13;101881.91;;;15.14;65.23
72061;BME280;59925;52.136;5.420;2022-07-29T03:14:41;101874.09;;;15.13;65.14
72061;BME280;59925;52.136;5.420;2022-07-29T03:17:09;101875.16;;;15.12;65.36
72061;BME280;59925;52.136;5.420;2022-07-29T03:19:36;101866.25;;;15.11;65.18
72061;BME280;59925;52.136;5.420;2022-07-29T03:22:03;101868.94;;;15.11;65.52
72061;BME280;59925;52.136;5.420;2022-07-29T03:24:32;101873.00;;;15.14;65.11
72061;BME280;59925;52.136;5.420;2022-07-29T03:26:59;101868.69;;;15.13;65.27
72061;BME280;59925;52.136;5.420;2022-07-29T03:29:27;101866.25;;;15.11;65.08
72061;BME280;59925;52.136;5.420;2022-07-29T03:31:59;101861.94;;;15.10;65.32
72061;BME280;59925;52.136;5.420;2022-07-29T03:34:27;101859.50;;;15.09;65.35
72061;BME280;59925;52.136;5.420;2022-07-29T03:36:54;101860.59;;;15.08;65.27
72061;BME280;59925;52.136;5.420;2022-07-29T03:39:24;101860.31;;;15.09;65.39
72061;BME280;59925;52.136;5.420;2022-07-29T03:41:53;101860.59;;;15.08;65.48
72061;BME280;59925;52.136;5.420;2022-07-29T03:44:22;101849.78;;;15.08;65.47
72061;BME280;59925;52.136;5.420;2022-07-29T03:46:50;101852.19;;;15.09;65.58
72061;BME280;59925;52.136;5.420;2022-07-29T03:49:19;101847.38;;;15.06;65.45
72061;BME280;59925;52.136;5.420;2022-07-29T03:51:47;101847.91;;;15.08;65.58
72061;BME280;59925;52.136;5.420;2022-07-29T03:54:13;101842.78;;;15.07;65.47
72061;BME280;59925;52.136;5.420;2022-07-29T03:56:44;101851.16;;;15.05;65.73
72061;BME280;59925;52.136;5.420;2022-07-29T03:59:15;101845.75;;;15.05;65.72
72061;BME280;59925;52.136;5.420;2022-07-29T04:01:44;101842.22;;;15.05;65.53
72061;BME280;59925;52.136;5.420;2022-07-29T04:04:11;101849.53;;;15.04;65.53
72061;BME280;59925;52.136;5.420;2022-07-29T04:06:42;101854.94;;;15.04;65.88
72061;BME280;59925;52.136;5.420;2022-07-29T04:09:09;101845.50;;;15.01;65.85
72061;BME280;59925;52.136;5.420;2022-07-29T04:11:38;101850.88;;;15.07;65.31
72061;BME280;59925;52.136;5.420;2022-07-29T04:14:24;101840.06;;;15.07;65.19
72061;BME280;59925;52.136;5.420;2022-07-29T04:16:51;101846.28;;;15.07;65.94
72061;BME280;59925;52.136;5.420;2022-07-29T04:19:19;101843.84;;;15.06;65.84
72061;BME280;59925;52.136;5.420;2022-07-29T04:21:45;101846.31;;;15.02;66.22
72061;BME280;59925;52.136;5.420;2022-07-29T04:24:11;101845.22;;;15.03;66.28
72061;BME280;59925;52.136;5.420;2022-07-29T04:26:38;101849.53;;;15.04;65.93
72061;BME280;59925;52.136;5.420;2022-07-29T04:29:05;101840.34;;;15.05;65.69
72061;BME280;59925;52.136;5.420;2022-07-29T04:31:31;101836.56;;;15.06;66.07
72061;BME280;59925;52.136;5.420;2022-07-29T04:33:57;101840.34;;;15.05;66.07
72061;BME280;59925;52.136;5.420;2022-07-29T04:36:24;101849.00;;;15.07;65.94
72061;BME280;59925;52.136;5.420;2022-07-29T04:38:55;101844.69;;;15.06;65.92
72061;BME280;59925;52.136;5.420;2022-07-29T04:41:21;101841.69;;;15.08;66.03
72061;BME280;59925;52.136;5.420;2022-07-29T04:43:48;101841.69;;;15.08;66.28
72061;BME280;59925;52.136;5.420;2022-07-29T04:46:15;101843.03;;;15.10;66.15
72061;BME280;59925;52.136;5.420;2022-07-29T04:48:42;101845.72;;;15.10;66.03
72061;BME280;59925;52.136;5.420;2022-07-29T04:51:08;101847.38;;;15.06;66.13
72061;BME280;59925;52.136;5.420;2022-07-29T04:53:35;101849.53;;;15.04;66.19
72061;BME280;59925;52.136;5.420;2022-07-29T04:56:02;101851.16;;;15.05;66.31
72061;BME280;59925;52.136;5.420;2022-07-29T04:58:28;101854.94;;;15.04;66.46
72061;BME280;59925;52.136;5.420;2022-07-29T05:00:55;101844.94;;;15.05;66.24
72061;BME280;59925;52.136;5.420;2022-07-29T05:03:21;101847.38;;;15.06;66.34
72061;BME280;59925;52.136;5.420;2022-07-29T05:05:47;101847.63;;;15.10;66.36
72061;BME280;59925;52.136;5.420;2022-07-29T05:08:14;101847.34;;;15.11;66.47
72061;BME280;59925;52.136;5.420;2022-07-29T05:10:40;101843.59;;;15.07;66.39
72061;BME280;59925;52.136;5.420;2022-07-29T05:13:07;101849.00;;;15.07;66.47
72061;BME280;59925;52.136;5.420;2022-07-29T05:15:34;101851.13;;;15.10;66.14
72061;BME280;59925;52.136;5.420;2022-07-29T05:18:01;101846.00;;;15.14;66.61
72061;BME280;59925;52.136;5.420;2022-07-29T05:20:28;101850.56;;;15.13;66.38
72061;BME280;59925;52.136;5.420;2022-07-29T05:22:56;101846.50;;;15.16;66.44
72061;BME280;59925;52.136;5.420;2022-07-29T05:25:24;101850.03;;;15.22;66.25
72061;BME280;59925;52.136;5.420;2022-07-29T05:28:09;101855.09;;;15.28;66.11
72061;BME280;59925;52.136;5.420;2022-07-29T05:30:36;101852.69;;;15.27;66.11
72061;BME280;59925;52.136;5.420;2022-07-29T05:33:02;101860.25;;;15.30;66.55
72061;BME280;59925;52.136;5.420;2022-07-29T05:35:29;101872.63;;;15.36;66.60
72061;BME280;59925;52.136;5.420;2022-07-29T05:37:55;101865.06;;;15.43;66.34
72061;BME280;59925;52.136;5.420;2022-07-29T05:40:22;101867.72;;;15.48;66.52
72061;BME280;59925;52.136;5.420;2022-07-29T05:42:48;101875.81;;;15.59;66.58
72061;BME280;59925;52.136;5.420;2022-07-29T05:45:15;101876.28;;;15.71;66.38
72061;BME280;59925;52.136;5.420;2022-07-29T05:47:41;101863.25;;;15.78;66.09
72061;BME280;59925;52.136;5.420;2022-07-29T05:50:08;101866.41;;;15.96;66.15
72061;BME280;59925;52.136;5.420;2022-07-29T05:52:34;101869.28;;;16.10;65.69
72061;BME280;59925;52.136;5.420;2022-07-29T05:55:01;101873.81;;;16.20;65.22
72061;BME280;59925;52.136;5.420;2022-07-29T05:57:30;101877.81;;;16.28;65.08
72061;BME280;59925;52.136;5.420;2022-07-29T05:59:57;101881.50;;;16.42;64.28
72061;BME280;59925;52.136;5.420;2022-07-29T06:02:24;101876.94;;;16.67;63.94
72061;BME280;59925;52.136;5.420;2022-07-29T06:04:50;101886.91;;;17.01;63.44
72061;BME280;59925;52.136;5.420;2022-07-29T06:07:17;101876.03;;;18.45;61.94
72061;BME280;59925;52.136;5.420;2022-07-29T06:09:43;101874.84;;;19.77;58.11
72061;BME280;59925;52.136;5.420;2022-07-29T06:12:10;101876.31;;;19.33;56.26
72061;BME280;59925;52.136;5.420;2022-07-29T06:14:36;101879.19;;;18.66;57.69
72061;BME280;59925;52.136;5.420;2022-07-29T06:17:04;101874.16;;;18.74;59.14
72061;BME280;59925;52.136;5.420;2022-07-29T06:19:34;101865.88;;;19.12;56.91
72061;BME280;59925;52.136;5.420;2022-07-29T06:22:00;101878.84;;;19.29;57.51
72061;BME280;59925;52.136;5.420;2022-07-29T06:24:26;101887.31;;;19.78;54.38
72061;BME280;59925;52.136;5.420;2022-07-29T06:26:53;101888.91;;;19.28;54.67
72061;BME280;59925;52.136;5.420;2022-07-29T06:29:19;101914.31;;;18.77;56.08
72061;BME280;59925;52.136;5.420;2022-07-29T06:31:46;101918.22;;;18.37;56.49
72061;BME280;59925;52.136;5.420;2022-07-29T06:34:12;101912.78;;;18.04;57.69
72061;BME280;59925;52.136;5.420;2022-07-29T06:36:39;101909.66;;;17.92;58.58
72061;BME280;59925;52.136;5.420;2022-07-29T06:39:07;101906.28;;;17.81;58.86
72061;BME280;59925;52.136;5.420;2022-07-29T06:41:34;101916.53;;;17.65;59.19
72061;BME280;59925;52.136;5.420;2022-07-29T06:44:00;101905.59;;;17.70;58.92
72061;BME280;59925;52.136;5.420;2022-07-29T06:46:27;101900.78;;;17.86;58.98
72061;BME280;59925;52.136;5.420;2022-07-29T06:48:54;101902.19;;;18.03;58.27
72061;BME280;59925;52.136;5.420;2022-07-29T06:51:21;101900.34;;;18.17;58.73
72061;BME280;59925;52.136;5.420;2022-07-29T06:53:50;101907.81;;;18.45;59.17
72061;BME280;59925;52.136;5.420;2022-07-29T06:56:37;101916.31;;;18.71;58.60
72061;BME280;59925;52.136;5.420;2022-07-29T06:59:09;101914.78;;;19.26;57.93
72061;BME280;59925;52.136;5.420;2022-07-29T07:01:38;101911.09;;;19.86;57.02
72061;BME280;59925;52.136;5.420;2022-07-29T07:04:05;101907.78;;;20.12;54.31
72061;BME280;59925;52.136;5.420;2022-07-29T07:06:32;101909.25;;;19.96;55.34
72061;BME280;59925;52.136;5.420;2022-07-29T07:08:58;101911.00;;;19.78;54.51
72061;BME280;59925;52.136;5.420;2022-07-29T07:11:25;101913.63;;;19.69;56.09
72061;BME280;59925;52.136;5.420;2022-07-29T07:13:51;101918.84;;;19.93;56.20
72061;BME280;59925;52.136;5.420;2022-07-29T07:16:17;101910.19;;;20.14;55.60
72061;BME280;59925;52.136;5.420;2022-07-29T07:18:44;101911.13;;;20.32;54.12
72061;BME280;59925;52.136;5.420;2022-07-29T07:21:11;101914.59;;;20.46;54.69
72061;BME280;59925;52.136;5.420;2022-07-29T07:23:44;101909.81;;;20.75;54.85
72061;BME280;59925;52.136;5.420;2022-07-29T07:26:10;101917.22;;;20.83;53.92
72061;BME280;59925;52.136;5.420;2022-07-29T07:28:37;101915.94;;;20.80;54.25
72061;BME280;59925;52.136;5.420;2022-07-29T07:31:03;101919.09;;;21.05;54.14
72061;BME280;59925;52.136;5.420;2022-07-29T07:33:30;101912.66;;;21.01;53.79
72061;BME280;59925;52.136;5.420;2022-07-29T07:35:56;101906.28;;;21.15;53.69
72061;BME280;59925;52.136;5.420;2022-07-29T07:38:22;101903.66;;;21.41;53.97
72061;BME280;59925;52.136;5.420;2022-07-29T07:40:49;101897.53;;;21.44;52.55
72061;BME280;59925;52.136;5.420;2022-07-29T07:43:15;101902.56;;;21.59;51.90
72061;BME280;59925;52.136;5.420;2022-07-29T07:45:42;101892.59;;;21.55;52.36
72061;BME280;59925;52.136;5.420;2022-07-29T07:48:08;101887.03;;;21.69;52.45
72061;BME280;59925;52.136;5.420;2022-07-29T07:50:36;101892.13;;;21.62;51.71
72061;BME280;59925;52.136;5.420;2022-07-29T07:53:03;101896.34;;;21.68;52.09
72061;BME280;59925;52.136;5.420;2022-07-29T07:55:29;101891.03;;;21.98;51.02
72061;BME280;59925;52.136;5.420;2022-07-29T07:58:16;101888.44;;;22.28;50.19
72061;BME280;59925;52.136;5.420;2022-07-29T08:00:42;101885.69;;;22.37;51.71
72061;BME280;59925;52.136;5.420;2022-07-29T08:03:09;101881.81;;;22.55;49.82
72061;BME280;59925;52.136;5.420;2022-07-29T08:05:42;101879.59;;;22.48;49.63
72061;BME280;59925;52.136;5.420;2022-07-29T08:08:09;101879.25;;;22.32;49.55
72061;BME280;59925;52.136;5.420;2022-07-29T08:10:36;101876.41;;;22.11;48.94
72061;BME280;59925;52.136;5.420;2022-07-29T08:13:23;101879.31;;;21.97;49.96
72061;BME280;59925;52.136;5.420;2022-07-29T08:15:49;101880.59;;;22.00;50.37
72061;BME280;59925;52.136;5.420;2022-07-29T08:18:37;101875.75;;;21.97;50.32
72061;BME280;59925;52.136;5.420;2022-07-29T08:21:04;101872.25;;;21.96;51.01
72061;BME280;59925;52.136;5.420;2022-07-29T08:23:31;101870.78;;;22.16;51.28
72061;BME280;59925;52.136;5.420;2022-07-29T08:26:14;101885.69;;;22.28;50.32
72061;BME280;59925;52.136;5.420;2022-07-29T08:28:42;101881.63;;;22.60;50.43
72061;BME280;59925;52.136;5.420;2022-07-29T08:31:13;101873.44;;;22.99;50.07
72061;BME280;59925;52.136;5.420;2022-07-29T08:33:40;101880.50;;;23.30;49.29
72061;BME280;59925;52.136;5.420;2022-07-29T08:36:06;101877.31;;;23.49;47.97
72061;BME280;59925;52.136;5.420;2022-07-29T08:38:33;101881.22;;;23.48;48.31
72061;BME280;59925;52.136;5.420;2022-07-29T08:41:01;101881.50;;;23.25;47.15
72061;BME280;59925;52.136;5.420;2022-07-29T08:43:28;101884.50;;;23.03;47.34
72061;BME280;59925;52.136;5.420;2022-07-29T08:45:55;101887.63;;;22.92;47.80
72061;BME280;59925;52.136;5.420;2022-07-29T08:48:22;101893.56;;;22.94;47.26
72061;BME280;59925;52.136;5.420;2022-07-29T08:50:54;101895.19;;;22.95;48.80
72061;BME280;59925;52.136;5.420;2022-07-29T08:53:24;101887.63;;;23.22;48.91
72061;BME280;59925;52.136;5.420;2022-07-29T08:55:52;101892.75;;;23.33;49.09
72061;BME280;59925;52.136;5.420;2022-07-29T08:58:20;101892.78;;;23.75;48.35
72061;BME280;59925;52.136;5.420;2022-07-29T09:00:53;101891.44;;;23.81;47.55
72061;BME280;59925;52.136;5.420;2022-07-29T09:03:23;101893.28;;;24.11;47.84
72061;BME280;59925;52.136;5.420;2022-07-29T09:05:51;101888.66;;;24.24;46.32
72061;BME280;59925;52.136;5.420;2022-07-29T09:08:18;101892.13;;;24.45;47.80
72061;BME280;59925;52.136;5.420;2022-07-29T09:10:46;101888.88;;;24.77;45.68
72061;BME280;59925;52.136;5.420;2022-07-29T09:13:12;101894.16;;;25.07;44.88
72061;BME280;59925;52.136;5.420;2022-07-29T09:15:39;101889.56;;;25.36;44.29
72061;BME280;59925;52.136;5.420;2022-07-29T09:18:05;101890.56;;;25.56;43.86
72061;BME280;59925;52.136;5.420;2022-07-29T09:20:32;101888.50;;;25.53;42.92
72061;BME280;59925;52.136;5.420;2022-07-29T09:23:33;101891.34;;;25.57;42.57
72061;BME280;59925;52.136;5.420;2022-07-29T09:26:05;101890.59;;;25.31;42.12
72061;BME280;59925;52.136;5.420;2022-07-29T09:28:31;101888.66;;;25.44;41.74
72061;BME280;59925;52.136;5.420;2022-07-29T09:30:58;101887.03;;;25.43;42.16
72061;BME280;59925;52.136;5.420;2022-07-29T09:33:32;101891.47;;;25.60;41.56
72061;BME280;59925;52.136;5.420;2022-07-29T09:36:07;101895.25;;;25.55;40.79
72061;BME280;59925;52.136;5.420;2022-07-29T09:38:34;101895.38;;;25.59;43.14
72061;BME280;59925;52.136;5.420;2022-07-29T09:41:03;101887.34;;;25.95;39.85
72061;BME280;59925;52.136;5.420;2022-07-29T09:43:32;101891.09;;;26.31;40.51
72061;BME280;59925;52.136;5.420;2022-07-29T09:46:12;101881.53;;;26.57;39.96
72061;BME280;59925;52.136;5.420;2022-07-29T09:48:39;101882.59;;;26.52;39.38
72061;BME280;59925;52.136;5.420;2022-07-29T09:51:16;101876.13;;;26.60;40.56
72061;BME280;59925;52.136;5.420;2022-07-29T09:53:47;101873.00;;;26.78;40.01
72061;BME280;59925;52.136;5.420;2022-07-29T09:56:13;101879.38;;;26.34;39.83
72061;BME280;59925;52.136;5.420;2022-07-29T09:58:40;101871.22;;;25.93;39.64
72061;BME280;59925;52.136;5.420;2022-07-29T10:01:06;101875.47;;;25.91;40.37
72061;BME280;59925;52.136;5.420;2022-07-29T10:03:50;101877.56;;;26.10;40.34
72061;BME280;59925;52.136;5.420;2022-07-29T10:06:17;101882.38;;;26.13;40.62
72061;BME280;59925;52.136;5.420;2022-07-29T10:08:43;101880.63;;;26.08;41.92
72061;BME280;59925;52.136;5.420;2022-07-29T10:11:11;101879.47;;;26.09;41.29
72061;BME280;59925;52.136;5.420;2022-07-29T10:13:38;101884.19;;;26.09;40.33
72061;BME280;59925;52.136;5.420;2022-07-29T10:16:05;101875.41;;;25.75;40.62
72061;BME280;59925;52.136;5.420;2022-07-29T10:18:32;101887.47;;;25.58;40.45
72061;BME280;59925;52.136;5.420;2022-07-29T10:21:00;101887.50;;;25.45;40.32
72061;BME280;59925;52.136;5.420;2022-07-29T10:23:28;101893.91;;;25.49;41.82
72061;BME280;59925;52.136;5.420;2022-07-29T10:26:11;101889.88;;;25.59;42.29
72061;BME280;59925;52.136;5.420;2022-07-29T10:28:39;101885.34;;;25.79;42.12
72061;BME280;59925;52.136;5.420;2022-07-29T10:31:06;101890.97;;;26.11;41.55
72061;BME280;59925;52.136;5.420;2022-07-29T10:42:27;101875.88;;;27.53;40.43
72061;BME280;59925;52.136;5.420;2022-07-29T10:45:01;101889.59;;;27.69;38.40
72061;BME280;59925;52.136;5.420;2022-07-29T10:47:30;101885.25;;;27.88;38.53
72061;BME280;59925;52.136;5.420;2022-07-29T10:50:00;101878.78;;;27.80;38.06
72061;BME280;59925;52.136;5.420;2022-07-29T10:55:35;101880.88;;;28.06;39.65
72061;BME280;59925;52.136;5.420;2022-07-29T10:58:21;101881.59;;;28.23;38.44
72061;BME280;59925;52.136;5.420;2022-07-29T11:00:51;101876.69;;;28.36;37.80
72061;BME280;59925;52.136;5.420;2022-07-29T11:03:47;101878.09;;;28.49;38.52
72061;BME280;59925;52.136;5.420;2022-07-29T11:06:18;101882.91;;;27.90;38.14
72061;BME280;59925;52.136;5.420;2022-07-29T11:09:15;101877.56;;;28.40;38.86
72061;BME280;59925;52.136;5.420;2022-07-29T11:11:45;101886.22;;;28.88;38.53
72061;BME280;59925;52.136;5.420;2022-07-29T11:17:23;101865.41;;;28.91;36.65
72061;BME280;59925;52.136;5.420;2022-07-29T11:19:50;101874.41;;;29.15;37.56
72061;BME280;59925;52.136;5.420;2022-07-29T11:22:34;101877.16;;;29.42;37.06
72061;BME280;59925;52.136;5.420;2022-07-29T11:25:15;101876.97;;;29.31;36.98
72061;BME280;59925;52.136;5.420;2022-07-29T11:27:42;101871.19;;;29.09;37.03
72061;BME280;59925;52.136;5.420;2022-07-29T11:30:11;101873.16;;;29.12;37.46
72061;BME280;59925;52.136;5.420;2022-07-29T11:32:42;101875.88;;;29.35;38.11
72061;BME280;59925;52.136;5.420;2022-07-29T11:35:17;101882.53;;;29.65;36.43
72061;BME280;59925;52.136;5.420;2022-07-29T11:41:26;101868.25;;;29.90;35.26
72061;BME280;59925;52.136;5.420;2022-07-29T11:44:01;101873.72;;;29.52;35.43
72061;BME280;59925;52.136;5.420;2022-07-29T11:46:50;101869.34;;;29.47;35.23
72061;BME280;59925;52.136;5.420;2022-07-29T11:49:26;101862.16;;;29.77;34.52
72061;BME280;59925;52.136;5.420;2022-07-29T11:51:58;101869.31;;;29.81;35.67
72061;BME280;59925;52.136;5.420;2022-07-29T11:54:34;101865.28;;;30.09;34.35
72061;BME280;59925;52.136;5.420;2022-07-29T11:57:20;101862.91;;;30.08;33.47
72061;BME280;59925;52.136;5.420;2022-07-29T11:59:47;101869.38;;;30.23;34.01
72061;BME280;59925;52.136;5.420;2022-07-29T12:02:14;101865.72;;;30.56;33.74
72061;BME280;59925;52.136;5.420;2022-07-29T12:05:01;101877.34;;;30.80;33.91
72061;BME280;59925;52.136;5.420;2022-07-29T12:07:38;101867.19;;;30.99;32.81
72061;BME280;59925;52.136;5.420;2022-07-29T12:10:07;101871.06;;;30.83;32.64
72061;BME280;59925;52.136;5.420;2022-07-29T12:12:51;101863.38;;;30.58;32.96
72061;BME280;59925;52.136;5.420;2022-07-29T12:15:19;101868.53;;;30.64;32.40
72061;BME280;59925;52.136;5.420;2022-07-29T12:18:15;101857.72;;;31.00;33.05
72061;BME280;59925;52.136;5.420;2022-07-29T12:20:44;101858.91;;;31.02;33.29
72061;BME280;59925;52.136;5.420;2022-07-29T12:23:11;101855.75;;;31.04;32.55
72061;BME280;59925;52.136;5.420;2022-07-29T12:25:43;101864.38;;;30.88;33.07
72061;BME280;59925;52.136;5.420;2022-07-29T12:28:15;101878.19;;;30.88;33.75
72061;BME280;59925;52.136;5.420;2022-07-29T12:30:52;101866.47;;;31.09;34.06
72061;BME280;59925;52.136;5.420;2022-07-29T12:33:24;101867.66;;;31.08;32.74
72061;BME280;59925;52.136;5.420;2022-07-29T12:35:54;101869.06;;;30.80;32.13
72061;BME280;59925;52.136;5.420;2022-07-29T12:38:36;101866.44;;;31.02;32.77
72061;BME280;59925;52.136;5.420;2022-07-29T12:41:03;101867.31;;;31.17;33.17
72061;BME280;59925;52.136;5.420;2022-07-29T12:43:31;101867.47;;;31.49;32.64
72061;BME280;59925;52.136;5.420;2022-07-29T12:46:11;101862.81;;;31.75;32.10
72061;BME280;59925;52.136;5.420;2022-07-29T12:48:40;101861.56;;;31.65;32.48
72061;BME280;59925;52.136;5.420;2022-07-29T12:51:08;101863.19;;;31.70;31.81
72061;BME280;59925;52.136;5.420;2022-07-29T12:53:36;101855.31;;;31.79;31.89
72061;BME280;59925;52.136;5.420;2022-07-29T12:56:04;101858.88;;;31.69;31.02
72061;BME280;59925;52.136;5.420;2022-07-29T12:58:51;101850.03;;;31.45;32.87
72061;BME280;59925;52.136;5.420;2022-07-29T13:01:18;101854.91;;;31.77;31.93
72061;BME280;59925;52.136;5.420;2022-07-29T13:03:53;101860.09;;;32.08;31.98
72061;BME280;59925;52.136;5.420;2022-07-29T13:06:42;101860.50;;;32.14;31.25
72061;BME280;59925;52.136;5.420;2022-07-29T13:09:19;101856.94;;;32.20;31.30
72061;BME280;59925;52.136;5.420;2022-07-29T13:11:47;101859.78;;;32.42;30.11
72061;BME280;59925;52.136;5.420;2022-07-29T13:14:30;101845.88;;;32.38;31.82
72061;BME280;59925;52.136;5.420;2022-07-29T13:17:10;101854.59;;;32.19;32.21
72061;BME280;59925;52.136;5.420;2022-07-29T13:19:45;101858.19;;;32.27;30.96
72061;BME280;59925;52.136;5.420;2022-07-29T13:22:14;101853.00;;;32.14;29.76
72061;BME280;59925;52.136;5.420;2022-07-29T13:24:48;101853.75;;;32.04;31.88
72061;BME280;59925;52.136;5.420;2022-07-29T13:27:15;101853.03;;;32.29;31.61
72061;BME280;59925;52.136;5.420;2022-07-29T13:29:42;101846.28;;;32.40;31.24
72061;BME280;59925;52.136;5.420;2022-07-29T13:32:11;101845.50;;;32.40;29.29
72061;BME280;59925;52.136;5.420;2022-07-29T13:34:38;101849.06;;;32.48;29.41
72061;BME280;59925;52.136;5.420;2022-07-29T13:37:04;101836.78;;;32.38;30.15
72061;BME280;59925;52.136;5.420;2022-07-29T13:39:31;101848.25;;;32.44;31.54